Time,TemperatureF,DewpointF,PressureIn,WindDirection,WindDirectionDegrees,WindSpeedMPH,WindSpeedGustMPH,Humidity,HourlyPrecipIn,Conditions,Clouds,dailyrainin,SoftwareType,DateUTC
2013-11-02 00:04:00,47.0,34.0,30.16,NNW,342,3.0,8.0,61,0.00,,,0.00,,2013-11-02 05:04:00,
2013-11-02 00:22:00,46.0,35.0,30.15,WNW,293,0.0,2.0,64,0.00,,,0.00,,2013-11-02 05:22:00,
2013-11-02 00:31:00,45.0,35.0,30.16,WSW,255,0.0,1.0,68,0.00,,,0.00,,2013-11-02 05:31:00,
2013-11-02 00:52:00,45.0,35.0,30.16,WSW,255,0.0,1.0,68,0.00,,,0.00,,2013-11-02 05:52:00,
2013-11-02 01:02:00,45.0,35.0,30.16,WSW,255,0.0,1.0,68,0.00,,,0.00,,2013-11-02 06:02:00,
2013-11-02 01:12:00,45.0,35.0,30.16,WSW,255,0.0,1.0,68,0.00,,,0.00,,2013-11-02 06:12:00,
2013-11-02 01:22:00,45.0,35.0,30.16,WSW,255,0.0,1.0,68,0.00,,,0.00,,2013-11-02 06:22:00,
2013-11-02 01:52:00,41.0,33.0,30.16,WSW,255,0.0,1.0,74,0.00,,,0.00,,2013-11-02 06:52:00,
2013-11-02 02:22:00,42.0,34.0,30.18,NW,308,1.0,5.0,73,0.00,,,0.00,,2013-11-02 07:22:00,
2013-11-02 02:42:00,43.0,35.0,30.19,NW,307,0.0,7.0,72,0.00,,,0.00,,2013-11-02 07:42:00,
2013-11-02 02:52:00,43.0,34.0,30.19,NW,315,4.0,4.0,71,0.00,,,0.00,,2013-11-02 07:52:00,
2013-11-02 03:22:00,43.0,34.0,30.19,WNW,302,3.0,6.0,71,0.00,,,0.00,,2013-11-02 08:22:00,
2013-11-02 03:52:00,43.0,34.0,30.20,NW,307,3.0,9.0,70,0.00,,,0.00,,2013-11-02 08:52:00,
2013-11-02 04:21:00,43.0,34.0,30.21,NW,305,3.0,9.0,69,0.00,,,0.00,,2013-11-02 09:21:00,
2013-11-02 04:43:00,43.0,34.0,30.21,West,267,4.0,9.0,69,0.00,,,0.00,,2013-11-02 09:43:00,
2013-11-02 04:53:00,43.0,34.0,30.21,West,267,4.0,9.0,69,0.00,,,0.00,,2013-11-02 09:53:00,
2013-11-02 05:03:00,43.0,34.0,30.21,West,267,4.0,9.0,69,0.00,,,0.00,,2013-11-02 10:03:00,
2013-11-02 05:23:00,42.0,33.0,30.21,WNW,297,3.0,11.0,69,0.00,,,0.00,,2013-11-02 10:23:00,
2013-11-02 05:53:00,42.0,33.0,30.23,WNW,297,3.0,3.0,69,0.00,,,0.00,,2013-11-02 10:53:00,
2013-11-02 06:22:00,42.0,33.0,30.23,WNW,297,3.0,3.0,69,0.00,,,0.00,,2013-11-02 11:22:00,
2013-11-02 06:42:00,42.0,33.0,30.24,WNW,297,3.0,3.0,69,0.00,,,0.00,,2013-11-02 11:42:00,
2013-11-02 06:52:00,42.0,33.0,30.24,WNW,297,3.0,3.0,69,0.00,,,0.00,,2013-11-02 11:52:00,
2013-11-02 07:21:00,42.0,33.0,30.25,WNW,297,3.0,3.0,69,0.00,,,0.00,,2013-11-02 12:21:00,
2013-11-02 07:52:00,42.0,33.0,30.26,WNW,297,3.0,3.0,69,0.00,,,0.00,,2013-11-02 12:52:00,
2013-11-02 08:12:00,42.0,33.0,30.26,WNW,297,3.0,3.0,69,0.00,,,0.00,,2013-11-02 13:12:00,
2013-11-02 08:22:00,42.0,33.0,30.26,WNW,297,3.0,3.0,69,0.00,,,0.00,,2013-11-02 13:22:00,
2013-11-02 08:42:00,42.0,33.0,30.27,WNW,297,3.0,3.0,69,0.00,,,0.00,,2013-11-02 13:42:00,
2013-11-02 08:52:00,42.0,33.0,30.27,WNW,297,3.0,3.0,69,0.00,,,0.00,,2013-11-02 13:52:00,
2013-11-02 09:02:00,42.0,33.0,30.27,WNW,297,3.0,3.0,69,0.00,,,0.00,,2013-11-02 14:02:00,
2013-11-02 09:22:00,40.0,31.0,30.27,NW,322,0.0,1.0,71,0.00,,,0.00,,2013-11-02 14:22:00,
2013-11-02 09:42:00,41.0,32.0,30.28,NW,307,3.0,6.0,69,0.00,,,0.00,,2013-11-02 14:42:00,
2013-11-02 09:52:00,41.0,32.0,30.28,NW,307,3.0,6.0,69,0.00,,,0.00,,2013-11-02 14:52:00,
2013-11-02 10:11:00,43.0,32.0,30.31,WNW,298,5.0,7.0,65,0.00,,,0.00,,2013-11-02 15:11:00,
2013-11-02 10:22:00,43.0,32.0,30.31,WNW,298,5.0,7.0,65,0.00,,,0.00,,2013-11-02 15:22:00,
2013-11-02 10:43:00,45.0,33.0,30.32,West,267,4.0,6.0,62,0.00,,,0.00,,2013-11-02 15:43:00,
2013-11-02 10:53:00,45.0,33.0,30.32,West,267,4.0,6.0,62,0.00,,,0.00,,2013-11-02 15:53:00,
2013-11-02 11:23:00,47.0,33.0,30.32,NW,324,5.0,10.0,57,0.00,,,0.00,,2013-11-02 16:23:00,
2013-11-02 11:54:00,50.0,34.0,30.33,NW,322,5.0,9.0,53,0.00,,,0.00,,2013-11-02 16:54:00,
2013-11-02 12:12:00,50.0,34.0,30.33,NW,314,3.0,9.0,53,0.00,,,0.00,,2013-11-02 17:12:00,
2013-11-02 12:22:00,50.0,34.0,30.33,NW,314,3.0,9.0,53,0.00,,,0.00,,2013-11-02 17:22:00,
2013-11-02 12:43:00,50.0,34.0,30.33,NW,314,3.0,9.0,53,0.00,,,0.00,,2013-11-02 17:43:00,
2013-11-02 13:53:00,57.0,32.0,30.28,WNW,284,0.0,7.0,38,0.00,,,0.00,,2013-11-02 18:53:00,
2013-11-02 14:01:00,57.0,32.0,30.28,WNW,284,0.0,7.0,38,0.00,,,0.00,,2013-11-02 19:01:00,
2013-11-02 14:21:00,59.0,32.0,30.27,West,270,2.0,7.0,36,0.00,,,0.00,,2013-11-02 19:21:00,
2013-11-02 14:42:00,59.0,30.0,30.27,WNW,302,5.0,11.0,33,0.00,,,0.00,,2013-11-02 19:42:00,
2013-11-02 14:52:00,59.0,30.0,30.27,WNW,302,5.0,11.0,33,0.00,,,0.00,,2013-11-02 19:52:00,
2013-11-02 15:22:00,60.0,30.0,30.25,NW,316,0.0,6.0,32,0.00,,,0.00,,2013-11-02 20:22:00,
2013-11-02 15:43:00,60.0,29.0,30.24,WNW,286,0.0,7.0,31,0.00,,,0.00,,2013-11-02 20:43:00,
2013-11-02 15:53:00,60.0,29.0,30.24,WNW,286,0.0,7.0,31,0.00,,,0.00,,2013-11-02 20:53:00,
2013-11-02 16:12:00,61.0,29.0,30.23,NW,305,0.0,5.0,30,0.00,,,0.00,,2013-11-02 21:12:00,
2013-11-02 16:22:00,61.0,29.0,30.23,NW,305,0.0,5.0,30,0.00,,,0.00,,2013-11-02 21:22:00,
2013-11-02 16:54:00,62.0,29.0,30.21,SSE,153,0.0,5.0,29,0.00,,,0.00,,2013-11-02 21:54:00,
2013-11-02 17:24:00,64.0,28.0,30.21,SSW,200,0.0,2.0,26,0.00,,,0.00,,2013-11-02 22:24:00,
2013-11-02 17:44:00,63.0,29.0,30.20,SSE,158,0.0,2.0,27,0.00,,,0.00,,2013-11-02 22:44:00,
2013-11-02 17:54:00,63.0,29.0,30.20,SSE,158,0.0,2.0,27,0.00,,,0.00,,2013-11-02 22:54:00,
2013-11-02 18:02:00,63.0,29.0,30.20,SSE,158,0.0,2.0,27,0.00,,,0.00,,2013-11-02 23:02:00,
2013-11-02 18:22:00,62.0,29.0,30.20,SE,145,5.0,5.0,29,0.00,,,0.00,,2013-11-02 23:22:00,
2013-11-02 18:42:00,60.0,31.0,30.19,SSE,167,0.0,6.0,33,0.00,,,0.00,,2013-11-02 23:42:00,
2013-11-02 18:52:00,58.0,31.0,30.19,SE,127,2.0,4.0,36,0.00,,,0.00,,2013-11-02 23:52:00,
2013-11-02 19:21:00,57.0,32.0,30.18,SSE,162,2.0,3.0,39,0.00,,,0.00,,2013-11-03 00:21:00,
2013-11-02 19:52:00,54.0,31.0,30.18,SSE,158,1.0,6.0,42,0.00,,,0.00,,2013-11-03 00:52:00,
2013-11-02 20:21:00,53.0,32.0,30.17,SE,134,3.0,8.0,44,0.00,,,0.00,,2013-11-03 01:21:00,
2013-11-02 20:32:00,53.0,32.0,30.17,SE,134,3.0,8.0,44,0.00,,,0.00,,2013-11-03 01:32:00,
2013-11-02 20:42:00,53.0,32.0,30.17,SE,134,3.0,8.0,44,0.00,,,0.00,,2013-11-03 01:42:00,
2013-11-02 20:52:00,53.0,32.0,30.17,SE,134,3.0,8.0,44,0.00,,,0.00,,2013-11-03 01:52:00,
2013-11-02 21:21:00,51.0,31.0,30.16,South,174,3.0,7.0,47,0.00,,,0.00,,2013-11-03 02:21:00,
2013-11-02 21:52:00,50.0,33.0,30.16,SSE,156,5.0,10.0,52,0.00,,,0.00,,2013-11-03 02:52:00,
2013-11-02 22:11:00,49.0,33.0,30.16,SSE,163,4.0,7.0,54,0.00,,,0.00,,2013-11-03 03:11:00,
2013-11-02 22:22:00,49.0,33.0,30.16,SSE,163,4.0,7.0,54,0.00,,,0.00,,2013-11-03 03:22:00,
2013-11-02 22:33:00,49.0,33.0,30.16,SSE,163,4.0,7.0,54,0.00,,,0.00,,2013-11-03 03:33:00,
2013-11-02 22:54:00,49.0,34.0,30.15,SSE,158,4.0,10.0,56,0.00,,,0.00,,2013-11-03 03:54:00,
2013-11-02 23:02:00,-999.0,-99.9,30.15,SSW,200,6.0,8.0,-999,-99.99,,,-99.99,,2013-11-03 04:02:00,
2013-11-02 23:23:00,49.0,34.0,30.16,SSE,162,3.0,7.0,55,0.00,,,0.00,,2013-11-03 04:23:00,
2013-11-02 23:34:00,49.0,34.0,30.16,SSE,162,3.0,7.0,55,0.00,,,0.00,,2013-11-03 04:34:00,
2013-11-02 23:52:00,49.0,33.0,30.15,SSE,153,2.0,9.0,54,0.00,,,0.00,,2013-11-03 04:52:00,